createdAt,value
2018-12-21T00:03:35.161Z,3.97
2018-12-21T00:08:37.627Z,4.20
2018-12-21T00:13:40.120Z,3.97
2018-12-21T00:18:42.580Z,3.97
2018-12-21T00:23:45.088Z,4.07
2018-12-21T00:28:47.556Z,4.00
2018-12-21T00:33:56.049Z,3.90
2018-12-21T00:39:04.149Z,3.80
2018-12-21T00:44:08.661Z,3.50
2018-12-21T00:49:11.122Z,3.77
2018-12-21T00:54:13.953Z,3.77
2018-12-21T00:59:16.540Z,3.50
2018-12-21T01:04:19.936Z,3.17
2018-12-21T01:09:22.558Z,3.93
2018-12-21T01:14:25.030Z,3.70
2018-12-21T01:19:28.069Z,3.87
2018-12-21T01:24:30.535Z,3.40
2018-12-21T01:29:33.005Z,3.23
2018-12-21T01:34:35.472Z,3.20
2018-12-21T01:39:37.944Z,3.10
2018-12-21T01:44:40.413Z,3.60
2018-12-21T01:49:42.885Z,3.10
2018-12-21T01:54:45.487Z,2.93
2018-12-21T01:59:47.964Z,2.73
2018-12-21T02:04:50.428Z,3.57
2018-12-21T02:09:53.136Z,3.73
2018-12-21T02:14:55.662Z,3.00
2018-12-21T02:19:58.159Z,3.10
2018-12-21T02:25:00.624Z,2.80
2018-12-21T02:30:03.608Z,2.83
2018-12-21T02:35:06.793Z,2.57
2018-12-21T02:40:09.294Z,3.00
2018-12-21T02:45:11.810Z,2.95
2018-12-21T02:50:14.343Z,2.87
2018-12-21T02:55:16.821Z,2.60
2018-12-21T03:00:19.283Z,3.60
2018-12-21T03:05:21.818Z,2.92
2018-12-21T03:10:24.276Z,3.00
2018-12-21T03:15:26.803Z,2.50
2018-12-21T03:20:29.301Z,2.73
2018-12-21T03:25:32.497Z,2.05
2018-12-21T03:30:34.997Z,2.90
2018-12-21T03:35:37.462Z,2.50
2018-12-21T03:40:39.981Z,2.60
2018-12-21T03:45:42.641Z,2.80
2018-12-21T03:50:45.116Z,2.40
2018-12-21T03:55:47.576Z,2.60
2018-12-21T04:00:50.079Z,2.60
2018-12-21T04:05:52.553Z,2.20
2018-12-21T04:10:55.044Z,2.50
2018-12-21T04:15:58.104Z,2.60
2018-12-21T04:21:00.569Z,3.10
2018-12-21T04:26:03.047Z,2.80
2018-12-21T04:31:05.532Z,2.63
2018-12-21T04:36:08.016Z,1.93
2018-12-21T04:41:10.480Z,2.20
2018-12-21T04:46:13.079Z,2.30
2018-12-21T04:51:15.604Z,2.30
2018-12-21T04:56:18.081Z,2.43
2018-12-21T05:01:20.568Z,2.17
2018-12-21T05:06:23.034Z,1.80
2018-12-21T05:11:25.496Z,2.33
2018-12-21T05:16:27.965Z,2.00
2018-12-21T05:21:30.426Z,2.00
2018-12-21T05:26:32.883Z,2.43
2018-12-21T05:31:35.353Z,2.43
2018-12-21T05:36:37.829Z,2.13
2018-12-21T05:41:40.464Z,2.17
2018-12-21T05:46:42.945Z,1.77
2018-12-21T05:51:45.483Z,1.80
2018-12-21T05:56:47.948Z,1.73
2018-12-21T06:01:50.717Z,2.27
2018-12-21T06:06:53.365Z,1.70
2018-12-21T06:11:55.832Z,1.87
2018-12-21T06:16:58.320Z,1.67
2018-12-21T06:22:00.878Z,2.30
2018-12-21T06:27:04.049Z,1.87
2018-12-21T06:32:06.717Z,2.40
2018-12-21T06:37:09.318Z,1.93
2018-12-21T06:42:11.905Z,2.07
2018-12-21T06:47:14.389Z,1.70
2018-12-21T06:52:16.994Z,2.07
2018-12-21T06:57:19.476Z,1.93
2018-12-21T07:02:22.186Z,1.80
2018-12-21T07:07:24.645Z,1.53
2018-12-21T07:12:27.133Z,1.70
2018-12-21T07:17:29.597Z,1.63
2018-12-21T07:22:32.094Z,1.70
2018-12-21T07:27:34.703Z,1.97
2018-12-21T07:32:37.170Z,1.60
2018-12-21T07:37:39.712Z,1.60
2018-12-21T07:42:42.195Z,1.67
2018-12-21T07:47:44.815Z,1.43
2018-12-21T07:52:47.285Z,1.70
2018-12-21T07:57:49.752Z,1.17
2018-12-21T08:02:52.212Z,0.90
2018-12-21T08:07:54.800Z,0.93
2018-12-21T08:12:57.256Z,1.17
2018-12-21T08:17:59.716Z,1.17
2018-12-21T08:23:02.356Z,1.00
2018-12-21T08:28:04.888Z,0.93
2018-12-21T08:33:07.423Z,1.30
2018-12-21T08:38:10.700Z,0.90
2018-12-21T08:43:13.170Z,1.17
2018-12-21T08:48:15.632Z,0.70
2018-12-21T08:53:18.412Z,1.10
2018-12-21T08:58:20.903Z,1.43
2018-12-21T09:03:23.416Z,2.30
2018-12-21T09:08:25.941Z,4.73
2018-12-21T09:13:28.603Z,6.67
2018-12-21T09:18:31.082Z,12.80
2018-12-21T09:23:33.961Z,22.40
2018-12-21T09:28:36.591Z,34.67
2018-12-21T09:33:39.120Z,46.70
2018-12-21T09:38:41.584Z,48.13
2018-12-21T09:43:44.052Z,51.33
2018-12-21T09:48:46.631Z,57.33
2018-12-21T09:53:49.109Z,59.23
2018-12-21T09:58:51.585Z,62.20
2018-12-21T10:03:54.239Z,65.33
2018-12-21T10:08:56.747Z,68.00
2018-12-21T10:14:00.001Z,64.67
2018-12-21T10:19:02.483Z,65.10
2018-12-21T10:24:04.984Z,58.77
2018-12-21T10:29:07.464Z,55.07
2018-12-21T10:34:10.016Z,54.80
2018-12-21T10:39:12.485Z,54.37
2018-12-21T10:44:14.953Z,54.33
2018-12-21T10:49:17.488Z,52.53
2018-12-21T10:54:26.842Z,52.17
2018-12-21T10:59:24.621Z,52.13
2018-12-21T11:04:27.152Z,53.23
2018-12-21T11:09:29.620Z,52.27
2018-12-21T11:14:32.613Z,53.13
2018-12-21T11:19:35.996Z,55.50
2018-12-21T11:24:38.545Z,57.87
2018-12-21T11:29:41.084Z,58.37
2018-12-21T11:34:43.548Z,56.63
2018-12-21T11:39:46.019Z,56.20
2018-12-21T11:44:48.488Z,53.27
2018-12-21T11:49:51.116Z,51.63
2018-12-21T11:54:53.732Z,51.87
2018-12-21T11:59:56.326Z,49.10
2018-12-21T12:04:58.797Z,47.93
2018-12-21T12:10:01.267Z,49.07
2018-12-21T12:15:05.365Z,48.83
2018-12-21T12:20:07.996Z,48.07
2018-12-21T12:25:10.460Z,46.93
2018-12-21T12:30:12.924Z,49.33
2018-12-21T12:35:15.420Z,46.63
2018-12-21T12:40:17.940Z,47.03
2018-12-21T12:45:20.415Z,46.27
2018-12-21T12:50:22.947Z,47.40
2018-12-21T12:55:25.621Z,44.50
2018-12-21T13:00:28.120Z,45.57
2018-12-21T13:05:30.589Z,46.27
2018-12-21T13:10:33.067Z,46.00
2018-12-21T13:15:36.285Z,45.50
2018-12-21T13:20:38.781Z,45.00
2018-12-21T13:25:41.263Z,43.70
2018-12-21T13:30:43.760Z,44.43
2018-12-21T13:35:46.764Z,43.37
2018-12-21T13:40:49.236Z,43.13
2018-12-21T13:45:51.708Z,42.13
2018-12-21T13:50:54.252Z,42.00
2018-12-21T13:55:56.747Z,43.30
2018-12-21T14:00:59.300Z,42.40
2018-12-21T14:06:01.835Z,41.93
2018-12-21T14:11:04.349Z,42.80
2018-12-21T14:16:06.867Z,41.10
2018-12-21T14:21:09.333Z,41.57
2018-12-21T14:26:11.819Z,42.13
2018-12-21T14:31:14.535Z,40.37
2018-12-21T14:36:16.998Z,41.67
2018-12-21T14:41:19.579Z,40.63
2018-12-21T14:46:22.205Z,39.80
2018-12-21T14:51:24.715Z,40.17
2018-12-21T14:56:27.352Z,39.83
2018-12-21T15:01:29.948Z,39.53
2018-12-21T15:06:32.445Z,39.43
2018-12-21T15:11:34.977Z,40.27
2018-12-21T15:16:37.485Z,40.17
2018-12-21T15:21:39.980Z,37.70
2018-12-21T15:26:42.457Z,38.73
2018-12-21T15:31:45.484Z,38.67
2018-12-21T15:36:48.399Z,37.10
2018-12-21T15:41:50.994Z,37.90
2018-12-21T15:46:53.564Z,39.13
2018-12-21T15:51:56.064Z,37.57
2018-12-21T15:56:58.557Z,37.40
2018-12-21T16:02:01.089Z,36.33
2018-12-21T16:07:03.609Z,37.03
2018-12-21T16:12:06.157Z,36.13
2018-12-21T16:17:08.893Z,35.43
2018-12-21T16:22:11.399Z,35.93
2018-12-21T16:27:14.517Z,34.37
2018-12-21T16:32:16.989Z,34.60
2018-12-21T16:37:19.486Z,35.73
2018-12-21T16:42:21.971Z,34.50
2018-12-21T16:47:24.845Z,34.57
2018-12-21T16:52:27.363Z,35.27
2018-12-21T16:57:29.824Z,32.23
2018-12-21T17:02:33.259Z,32.63
2018-12-21T17:07:35.755Z,33.53
2018-12-21T17:12:38.243Z,30.70
2018-12-21T17:17:40.733Z,30.53
2018-12-21T17:22:43.196Z,30.83
2018-12-21T17:27:46.141Z,31.40
2018-12-21T17:32:48.609Z,29.63
2018-12-21T17:37:51.082Z,28.07
2018-12-21T17:42:53.579Z,30.37
2018-12-21T17:47:56.064Z,28.97
2018-12-21T17:52:58.527Z,29.57
2018-12-21T17:58:01.011Z,29.37
2018-12-21T18:03:03.527Z,27.90
2018-12-21T18:08:06.676Z,26.50
2018-12-21T18:13:09.306Z,27.40
2018-12-21T18:18:12.036Z,26.30
2018-12-21T18:23:15.243Z,27.43
2018-12-21T18:28:22.289Z,24.93
2018-12-21T18:33:24.933Z,24.83
2018-12-21T18:38:27.448Z,23.73
2018-12-21T18:43:29.919Z,22.87
2018-12-21T18:48:32.540Z,23.23
2018-12-21T18:53:35.017Z,22.37
2018-12-21T18:58:37.480Z,22.30
2018-12-21T19:03:39.978Z,21.73
2018-12-21T19:08:42.441Z,20.53
2018-12-21T19:13:44.946Z,19.63
2018-12-21T19:18:47.412Z,20.30
2018-12-21T19:23:49.871Z,19.63
2018-12-21T19:28:52.363Z,18.77
2018-12-21T19:33:54.836Z,18.30
2018-12-21T19:38:57.301Z,17.67
2018-12-21T19:43:59.763Z,17.50
2018-12-21T19:49:02.256Z,16.53
2018-12-21T19:54:04.744Z,16.20
2018-12-21T19:59:07.216Z,16.90
2018-12-21T20:04:09.693Z,16.13
2018-12-21T20:09:12.211Z,15.40
2018-12-21T20:14:14.772Z,16.13
2018-12-21T20:19:17.293Z,15.73
2018-12-21T20:24:19.814Z,13.87
2018-12-21T20:29:22.293Z,14.67
2018-12-21T20:34:24.887Z,15.10
2018-12-21T20:39:27.729Z,14.03
2018-12-21T20:44:30.241Z,14.23
2018-12-21T20:49:32.708Z,13.67
2018-12-21T20:54:36.565Z,13.93
2018-12-21T20:59:39.479Z,13.53
2018-12-21T21:04:42.076Z,13.27
2018-12-21T21:09:44.652Z,14.17
2018-12-21T21:14:47.362Z,13.30
2018-12-21T21:19:50.218Z,12.47
2018-12-21T21:24:52.697Z,12.53
2018-12-21T21:29:55.340Z,12.67
2018-12-21T21:34:58.396Z,11.83
2018-12-21T21:40:02.382Z,12.40
2018-12-21T21:45:08.164Z,12.37
2018-12-21T21:50:10.652Z,12.05
2018-12-21T21:55:13.172Z,12.13
2018-12-21T22:00:15.732Z,11.47
2018-12-21T22:05:18.353Z,12.13
2018-12-21T22:10:20.848Z,11.27
2018-12-21T22:15:23.985Z,11.07
2018-12-21T22:20:26.484Z,11.93
2018-12-21T22:25:29.053Z,11.20
2018-12-21T22:30:31.701Z,10.87
2018-12-21T22:35:34.193Z,10.90
2018-12-21T22:40:36.689Z,10.40
2018-12-21T22:45:39.264Z,10.73
2018-12-21T22:50:41.959Z,10.33
2018-12-21T22:55:44.429Z,9.80
2018-12-21T23:00:47.221Z,9.83
2018-12-21T23:05:49.747Z,9.13
2018-12-21T23:10:52.837Z,9.83
2018-12-21T23:15:55.313Z,9.70
2018-12-21T23:20:57.892Z,9.57
2018-12-21T23:26:00.359Z,9.93
2018-12-21T23:31:02.820Z,9.23
2018-12-21T23:36:05.705Z,8.20
2018-12-21T23:41:08.176Z,8.77
2018-12-21T23:46:10.731Z,8.00
2018-12-21T23:51:13.309Z,8.17
2018-12-21T23:56:15.776Z,8.20
